createdAt,value
2018-08-20T00:01:34.284Z,5.60
2018-08-20T00:04:02.656Z,6.23
2018-08-20T00:06:34.644Z,4.90
2018-08-20T00:09:02.112Z,4.87
2018-08-20T00:11:29.818Z,4.77
2018-08-20T00:13:57.222Z,4.97
2018-08-20T00:16:24.922Z,4.03
2018-08-20T00:18:52.329Z,5.20
2018-08-20T00:21:19.733Z,5.13
2018-08-20T00:23:47.201Z,4.57
2018-08-20T00:26:14.592Z,4.63
2018-08-20T00:28:41.924Z,6.10
2018-08-20T00:31:09.332Z,5.07
2018-08-20T00:33:37.521Z,4.60
2018-08-20T00:36:05.315Z,5.10
2018-08-20T00:38:32.734Z,5.77
2018-08-20T00:41:00.091Z,4.70
2018-08-20T00:43:27.418Z,4.90
2018-08-20T00:45:54.913Z,5.23
2018-08-20T00:48:22.317Z,4.90
2018-08-20T00:50:50.056Z,5.10
2018-08-20T00:53:17.414Z,6.23
2018-08-20T00:55:44.876Z,4.63
2018-08-20T00:58:12.342Z,4.33
2018-08-20T01:00:39.737Z,5.17
2018-08-20T01:03:07.444Z,4.60
2018-08-20T01:05:34.779Z,4.20
2018-08-20T01:08:02.631Z,4.93
2018-08-20T01:10:30.091Z,5.03
2018-08-20T01:12:57.507Z,4.77
2018-08-20T01:15:24.983Z,5.20
2018-08-20T01:17:52.553Z,4.67
2018-08-20T01:20:19.946Z,5.43
2018-08-20T01:22:47.313Z,7.30
2018-08-20T01:25:14.674Z,5.33
2018-08-20T01:27:46.856Z,5.03
2018-08-20T01:30:14.329Z,4.97
2018-08-20T01:32:41.754Z,5.33
2018-08-20T01:35:17.664Z,4.87
2018-08-20T01:37:45.060Z,5.33
2018-08-20T01:40:12.435Z,5.30
2018-08-20T01:42:40.148Z,5.57
2018-08-20T01:45:07.519Z,4.57
2018-08-20T01:47:34.960Z,5.07
2018-08-20T01:50:02.360Z,4.43
2018-08-20T01:52:29.880Z,4.83
2018-08-20T01:54:57.576Z,5.87
2018-08-20T01:57:24.964Z,5.03
2018-08-20T01:59:52.383Z,6.80
2018-08-20T02:02:19.840Z,5.80
2018-08-20T02:04:47.310Z,5.67
2018-08-20T02:07:14.809Z,6.77
2018-08-20T02:09:42.289Z,5.70
2018-08-20T02:12:09.691Z,4.77
2018-08-20T02:14:37.157Z,4.97
2018-08-20T02:17:05.005Z,5.40
2018-08-20T02:19:32.776Z,6.30
2018-08-20T02:22:00.130Z,4.80
2018-08-20T02:24:27.517Z,5.37
2018-08-20T02:26:54.835Z,5.40
2018-08-20T02:29:22.714Z,5.67
2018-08-20T02:31:50.112Z,4.87
2018-08-20T02:34:17.507Z,5.70
2018-08-20T02:36:45.519Z,5.67
2018-08-20T02:39:14.265Z,5.73
2018-08-20T02:41:42.212Z,7.90
2018-08-20T02:44:10.793Z,5.20
2018-08-20T02:46:48.181Z,5.90
2018-08-20T02:49:16.370Z,5.00
2018-08-20T02:51:44.117Z,7.20
2018-08-20T02:54:12.283Z,4.97
2018-08-20T02:56:39.935Z,6.10
2018-08-20T02:59:07.843Z,6.20
2018-08-20T03:01:35.339Z,5.43
2018-08-20T03:04:02.775Z,4.90
2018-08-20T03:06:30.322Z,4.97
2018-08-20T03:08:57.756Z,5.40
2018-08-20T03:11:25.064Z,6.47
2018-08-20T03:13:52.380Z,5.77
2018-08-20T03:16:19.711Z,5.80
2018-08-20T03:18:47.093Z,5.63
2018-08-20T03:21:14.502Z,5.60
2018-08-20T03:23:41.939Z,5.73
2018-08-20T03:26:09.347Z,6.87
2018-08-20T03:28:36.762Z,5.60
2018-08-20T03:31:04.092Z,5.20
2018-08-20T03:33:31.531Z,6.33
2018-08-20T03:35:58.848Z,5.60
2018-08-20T03:38:26.205Z,6.07
2018-08-20T03:40:53.955Z,5.33
2018-08-20T03:43:21.949Z,5.73
2018-08-20T03:45:49.273Z,5.33
2018-08-20T03:48:16.653Z,6.03
2018-08-20T03:50:44.027Z,5.70
2018-08-20T03:53:11.372Z,7.10
2018-08-20T03:55:38.734Z,5.63
2018-08-20T03:58:06.197Z,8.30
2018-08-20T04:00:34.346Z,6.57
2018-08-20T04:03:01.786Z,6.73
2018-08-20T04:05:29.189Z,5.70
2018-08-20T04:07:56.559Z,6.63
2018-08-20T04:10:23.864Z,5.47
2018-08-20T04:12:51.235Z,7.07
2018-08-20T04:15:18.623Z,9.00
2018-08-20T04:17:45.972Z,5.43
2018-08-20T04:20:13.315Z,5.67
2018-08-20T04:22:40.774Z,7.03
2018-08-20T04:25:08.271Z,5.97
2018-08-20T04:27:35.693Z,7.67
2018-08-20T04:30:03.173Z,5.70
2018-08-20T04:32:30.584Z,6.53
2018-08-20T04:34:57.975Z,5.83
2018-08-20T04:37:25.460Z,7.33
2018-08-20T04:39:52.966Z,5.90
2018-08-20T04:42:20.413Z,7.83
2018-08-20T04:44:47.751Z,9.30
2018-08-20T04:47:22.787Z,6.33
2018-08-20T04:49:51.047Z,6.80
2018-08-20T04:52:18.408Z,5.83
2018-08-20T04:54:45.862Z,6.80
2018-08-20T04:57:13.470Z,5.60
2018-08-20T04:59:41.074Z,7.13
2018-08-20T05:02:08.953Z,7.77
2018-08-20T05:04:36.360Z,7.03
2018-08-20T05:07:03.712Z,6.00
2018-08-20T05:09:31.184Z,7.50
2018-08-20T05:11:58.771Z,6.43
2018-08-20T05:14:26.151Z,7.13
2018-08-20T05:16:53.525Z,7.30
2018-08-20T05:19:21.100Z,6.07
2018-08-20T05:21:48.861Z,5.90
2018-08-20T05:24:16.204Z,6.47
2018-08-20T05:26:44.055Z,6.67
2018-08-20T05:29:11.442Z,6.37
2018-08-20T05:31:38.808Z,7.23
2018-08-20T05:34:06.239Z,7.20
2018-08-20T05:36:33.581Z,6.80
2018-08-20T05:39:01.461Z,9.83
2018-08-20T05:41:28.835Z,9.57
2018-08-20T05:43:56.324Z,6.60
2018-08-20T05:46:23.755Z,9.50
2018-08-20T05:48:51.160Z,5.80
2018-08-20T05:51:18.633Z,6.40
2018-08-20T05:53:45.985Z,6.20
2018-08-20T05:56:13.509Z,5.80
2018-08-20T05:58:40.861Z,7.63
2018-08-20T06:01:08.372Z,5.83
2018-08-20T06:03:35.956Z,6.20
2018-08-20T06:06:03.411Z,7.97
2018-08-20T06:08:31.181Z,6.50
2018-08-20T06:10:58.668Z,6.70
2018-08-20T06:13:26.277Z,6.87
2018-08-20T06:15:53.747Z,6.37
2018-08-20T06:18:21.198Z,6.63
2018-08-20T06:20:48.633Z,6.07
2018-08-20T06:23:16.033Z,7.33
2018-08-20T06:25:43.486Z,5.90
2018-08-20T06:28:10.927Z,6.00
2018-08-20T06:30:38.337Z,5.80
2018-08-20T06:33:05.750Z,8.57
2018-08-20T06:35:33.241Z,6.10
2018-08-20T06:38:00.671Z,5.10
2018-08-20T06:40:28.344Z,7.13
2018-08-20T06:42:56.153Z,6.30
2018-08-20T06:45:23.551Z,8.10
2018-08-20T06:47:50.969Z,7.00
2018-08-20T06:50:18.356Z,9.83
2018-08-20T06:52:46.397Z,6.00
2018-08-20T06:55:14.815Z,6.10
2018-08-20T06:57:43.048Z,6.63
2018-08-20T07:00:11.392Z,6.53
2018-08-20T07:02:39.107Z,7.80
2018-08-20T07:05:07.051Z,5.90
2018-08-20T07:07:34.721Z,6.00
2018-08-20T07:10:02.118Z,6.60
2018-08-20T07:12:29.446Z,5.17
2018-08-20T07:14:56.883Z,6.70
2018-08-20T07:17:24.284Z,6.10
2018-08-20T07:19:51.678Z,5.17
2018-08-20T07:22:19.160Z,5.87
2018-08-20T07:24:46.564Z,5.60
2018-08-20T07:27:13.960Z,6.83
2018-08-20T07:29:43.243Z,8.70
2018-08-20T07:32:12.781Z,6.80
2018-08-20T07:34:42.640Z,7.33
2018-08-20T07:37:12.094Z,5.80
2018-08-20T07:39:40.827Z,5.50
2018-08-20T07:42:08.350Z,6.30
2018-08-20T07:44:35.870Z,5.80
2018-08-20T07:47:03.646Z,6.30
2018-08-20T07:49:31.185Z,5.80
2018-08-20T07:51:58.542Z,4.97
2018-08-20T07:54:26.003Z,6.37
2018-08-20T07:56:53.385Z,6.03
2018-08-20T07:59:20.751Z,6.30
2018-08-20T08:01:48.187Z,6.80
2018-08-20T08:04:15.649Z,5.60
2018-08-20T08:06:43.367Z,5.57
2018-08-20T08:09:11.466Z,6.60
2018-08-20T08:11:38.944Z,5.90
2018-08-20T08:14:06.847Z,5.83
2018-08-20T08:16:34.993Z,5.53
2018-08-20T08:19:03.335Z,7.93
2018-08-20T08:21:30.721Z,6.20
2018-08-20T08:23:58.176Z,5.53
2018-08-20T08:26:25.579Z,7.57
2018-08-20T08:28:53.154Z,8.00
2018-08-20T08:31:20.563Z,6.00
2018-08-20T08:33:47.989Z,5.50
2018-08-20T08:36:15.467Z,5.67
2018-08-20T08:38:42.952Z,6.50
2018-08-20T08:41:10.352Z,4.73
2018-08-20T08:43:37.788Z,4.77
2018-08-20T08:46:05.209Z,5.73
2018-08-20T08:48:32.701Z,6.33
2018-08-20T08:51:00.314Z,7.17
2018-08-20T08:53:27.735Z,5.80
2018-08-20T08:55:55.072Z,5.40
2018-08-20T08:58:22.402Z,5.80
2018-08-20T09:00:49.825Z,7.00
2018-08-20T09:03:17.209Z,6.83
2018-08-20T09:05:44.881Z,7.00
2018-08-20T09:08:12.292Z,6.23
2018-08-20T09:10:39.715Z,6.50
2018-08-20T09:13:07.113Z,6.97
2018-08-20T09:15:34.552Z,5.53
2018-08-20T09:18:02.648Z,6.27
2018-08-20T09:20:30.095Z,6.43
2018-08-20T09:22:57.561Z,7.63
2018-08-20T09:25:25.049Z,5.80
2018-08-20T09:27:53.283Z,6.13
2018-08-20T09:30:22.332Z,6.10
2018-08-20T09:32:49.796Z,6.00
2018-08-20T09:35:17.383Z,6.50
2018-08-20T09:37:44.799Z,5.90
2018-08-20T09:40:12.562Z,5.13
2018-08-20T09:42:40.831Z,5.17
2018-08-20T09:45:08.329Z,6.07
2018-08-20T09:47:36.976Z,6.00
2018-08-20T09:50:05.136Z,5.87
2018-08-20T09:52:32.535Z,5.57
2018-08-20T09:55:00.057Z,8.03
2018-08-20T09:57:27.619Z,5.63
2018-08-20T09:59:55.196Z,5.73
2018-08-20T10:02:22.591Z,5.53
2018-08-20T10:04:50.524Z,5.37
2018-08-20T10:07:17.907Z,4.77
2018-08-20T10:09:45.357Z,5.03
2018-08-20T10:12:12.839Z,6.17
2018-08-20T10:17:52.054Z,5.73
2018-08-20T10:20:19.452Z,5.00
2018-08-20T10:22:46.900Z,5.37
2018-08-20T10:25:14.480Z,4.90
2018-08-20T10:27:41.898Z,5.07
2018-08-20T10:30:09.837Z,5.23
2018-08-20T10:32:37.287Z,5.27
2018-08-20T10:35:05.004Z,5.17
2018-08-20T10:37:32.533Z,5.83
2018-08-20T10:40:00.033Z,5.23
2018-08-20T10:42:28.219Z,4.90
2018-08-20T10:45:01.139Z,5.10
2018-08-20T10:47:28.663Z,4.33
2018-08-20T10:49:56.152Z,5.00
2018-08-20T10:52:23.559Z,5.13
2018-08-20T10:54:51.032Z,4.57
2018-08-20T10:57:18.451Z,5.07
2018-08-20T10:59:45.934Z,4.30
2018-08-20T11:02:13.394Z,5.10
2018-08-20T11:04:40.769Z,5.23
2018-08-20T11:07:08.143Z,5.53
2018-08-20T11:09:35.573Z,4.57
2018-08-20T11:12:03.058Z,4.67
2018-08-20T11:14:30.643Z,4.77
2018-08-20T11:16:58.047Z,4.43
2018-08-20T11:19:25.872Z,4.77
2018-08-20T11:21:53.218Z,4.40
2018-08-20T11:24:20.672Z,5.27
2018-08-20T11:26:48.819Z,4.27
2018-08-20T11:29:16.240Z,5.27
2018-08-20T11:31:43.583Z,8.30
2018-08-20T11:34:11.217Z,5.20
2018-08-20T11:36:38.650Z,5.40
2018-08-20T11:39:06.449Z,5.13
2018-08-20T11:41:33.824Z,5.40
2018-08-20T11:44:01.237Z,4.50
2018-08-20T11:46:28.891Z,4.27
2018-08-20T11:48:56.341Z,5.23
2018-08-20T11:51:24.402Z,5.80
2018-08-20T11:53:51.903Z,8.50
2018-08-20T11:56:19.310Z,6.90
2018-08-20T11:58:46.750Z,5.70
2018-08-20T12:01:14.203Z,5.03
2018-08-20T12:03:41.558Z,5.30
2018-08-20T12:06:09.075Z,5.23
2018-08-20T12:08:36.604Z,4.57
2018-08-20T12:11:04.096Z,5.37
2018-08-20T12:13:31.478Z,6.03
2018-08-20T12:15:58.915Z,5.50
2018-08-20T12:18:26.346Z,5.47
2018-08-20T12:20:53.940Z,5.23
2018-08-20T12:23:21.323Z,5.50
2018-08-20T12:25:48.838Z,5.60
2018-08-20T12:28:16.286Z,5.90
2018-08-20T12:30:43.616Z,5.23
2018-08-20T12:33:10.978Z,5.70
2018-08-20T12:35:38.385Z,5.00
2018-08-20T12:38:05.763Z,5.10
2018-08-20T12:40:33.245Z,4.40
2018-08-20T12:43:00.650Z,5.27
2018-08-20T12:45:28.017Z,4.67
2018-08-20T12:47:55.429Z,5.10
2018-08-20T12:50:22.916Z,5.07
2018-08-20T12:52:50.481Z,5.30
2018-08-20T12:55:18.053Z,6.60
2018-08-20T12:57:45.483Z,5.00
2018-08-20T13:00:12.873Z,5.10
2018-08-20T13:02:40.320Z,5.17
2018-08-20T13:05:07.750Z,4.70
2018-08-20T13:07:35.198Z,5.37
2018-08-20T13:10:02.679Z,7.50
2018-08-20T13:23:26.999Z,4.80
2018-08-20T13:28:38.347Z,4.50
2018-08-20T13:42:03.473Z,4.63
2018-08-20T13:50:05.603Z,3.80
2018-08-20T14:00:46.379Z,4.47
2018-08-20T14:08:43.418Z,4.33
2018-08-20T14:11:10.831Z,4.00
2018-08-20T14:13:38.732Z,3.80
2018-08-20T14:16:07.175Z,4.87
2018-08-20T14:18:34.691Z,3.73
2018-08-20T14:21:03.653Z,3.97
2018-08-20T14:23:31.266Z,3.97
2018-08-20T14:25:59.316Z,4.03
2018-08-20T14:28:26.976Z,6.60
2018-08-20T14:30:54.949Z,3.33
2018-08-20T14:33:22.451Z,3.97
2018-08-20T14:35:50.255Z,5.23
2018-08-20T14:38:17.831Z,3.90
2018-08-20T14:40:45.238Z,4.10
2018-08-20T14:43:12.676Z,4.13
2018-08-20T14:45:45.346Z,4.07
2018-08-20T14:48:12.914Z,4.10
2018-08-20T14:50:40.348Z,3.93
2018-08-20T14:53:07.967Z,4.30
2018-08-20T14:55:35.508Z,4.20
2018-08-20T14:58:02.857Z,3.63
2018-08-20T15:00:30.306Z,4.10
2018-08-20T15:02:57.729Z,3.40
2018-08-20T15:05:25.192Z,4.47
2018-08-20T15:07:52.639Z,4.03
2018-08-20T15:10:20.142Z,6.30
2018-08-20T15:12:48.445Z,3.87
2018-08-20T15:15:15.887Z,3.50
2018-08-20T15:17:43.329Z,4.10
2018-08-20T15:20:10.758Z,4.43
2018-08-20T15:22:38.770Z,3.20
2018-08-20T15:25:06.272Z,2.97
2018-08-20T15:27:34.533Z,3.10
2018-08-20T15:30:02.070Z,3.70
2018-08-20T15:32:29.598Z,4.80
2018-08-20T15:34:57.599Z,3.80
2018-08-20T15:37:24.962Z,3.33
2018-08-20T15:39:52.528Z,3.50
2018-08-20T15:42:20.073Z,3.57
2018-08-20T15:44:47.499Z,3.47
2018-08-20T15:47:15.259Z,8.93
2018-08-20T15:49:42.664Z,4.20
2018-08-20T15:58:01.325Z,4.10
2018-08-20T16:00:29.236Z,3.47
2018-08-20T16:02:57.449Z,3.87
2018-08-20T16:05:25.762Z,4.40
2018-08-20T16:07:53.734Z,3.50
2018-08-20T16:10:21.149Z,3.17
2018-08-20T16:12:48.519Z,3.30
2018-08-20T16:15:16.005Z,3.57
2018-08-20T16:17:43.995Z,3.67
2018-08-20T16:20:13.029Z,3.73
2018-08-20T16:22:41.204Z,3.53
2018-08-20T16:25:09.013Z,3.10
2018-08-20T16:27:36.881Z,3.33
2018-08-20T16:30:05.870Z,3.50
2018-08-20T16:32:33.721Z,4.60
2018-08-20T16:35:02.023Z,3.50
2018-08-20T16:37:30.360Z,3.50
2018-08-20T16:39:57.739Z,2.83
2018-08-20T16:42:25.080Z,3.00
2018-08-20T16:44:52.493Z,2.57
2018-08-20T16:47:19.833Z,3.10
2018-08-20T16:49:47.196Z,2.87
2018-08-20T16:52:14.606Z,2.27
2018-08-20T16:54:41.939Z,3.93
2018-08-20T16:57:09.334Z,3.67
2018-08-20T16:59:36.692Z,2.30
2018-08-20T17:02:04.073Z,2.33
2018-08-20T17:04:35.838Z,2.60
2018-08-20T17:07:03.284Z,2.20
2018-08-20T17:09:31.353Z,2.83
2018-08-20T17:11:58.694Z,2.10
2018-08-20T17:14:26.081Z,2.03
2018-08-20T17:16:53.659Z,2.27
2018-08-20T17:19:21.265Z,2.33
2018-08-20T17:21:48.645Z,5.10
2018-08-20T17:24:19.146Z,2.10
2018-08-20T17:26:46.549Z,2.53
2018-08-20T17:29:14.042Z,5.30
2018-08-20T17:31:41.457Z,2.97
2018-08-20T17:34:08.894Z,2.63
2018-08-20T17:36:38.295Z,2.70
2018-08-20T17:39:06.633Z,4.40
2018-08-20T17:41:34.028Z,2.43
2018-08-20T17:44:01.449Z,2.60
2018-08-20T17:46:28.874Z,2.63
2018-08-20T17:48:57.601Z,2.90
2018-08-20T17:51:25.059Z,2.93
2018-08-20T17:53:53.300Z,3.17
2018-08-20T17:56:21.065Z,2.77
2018-08-20T17:58:51.394Z,2.83
2018-08-20T18:01:18.718Z,3.10
2018-08-20T18:03:46.993Z,3.27
2018-08-20T18:06:14.305Z,2.83
2018-08-20T18:08:41.791Z,4.17
2018-08-20T18:11:09.185Z,4.33
2018-08-20T18:13:42.471Z,4.83
2018-08-20T18:16:11.078Z,3.03
2018-08-20T18:18:39.205Z,5.80
2018-08-20T18:21:06.570Z,4.90
2018-08-20T18:23:38.894Z,3.87
2018-08-20T18:26:06.239Z,3.43
2018-08-20T18:28:36.427Z,3.40
2018-08-20T18:31:11.474Z,9.13
2018-08-20T18:33:40.102Z,4.23
2018-08-20T18:36:13.011Z,4.70
2018-08-20T18:38:46.565Z,3.00
2018-08-20T18:41:13.982Z,3.73
2018-08-20T18:43:41.546Z,3.47
2018-08-20T18:46:08.969Z,3.10
2018-08-20T18:48:39.960Z,3.53
2018-08-20T18:51:08.409Z,3.87
2018-08-20T18:53:35.730Z,3.10
2018-08-20T18:56:10.470Z,3.20
2018-08-20T18:58:38.040Z,4.40
2018-08-20T19:01:05.542Z,4.03
2018-08-20T19:03:38.326Z,4.20
2018-08-20T19:06:05.754Z,3.47
2018-08-20T19:08:33.406Z,5.60
2018-08-20T19:11:01.161Z,3.80
2018-08-20T19:13:28.631Z,4.03
2018-08-20T19:15:56.105Z,4.27
2018-08-20T19:18:26.063Z,8.33
2018-08-20T19:20:53.388Z,5.33
2018-08-20T19:23:20.796Z,4.30
2018-08-20T19:25:48.199Z,3.73
2018-08-20T19:28:22.528Z,4.70
2018-08-20T19:30:50.601Z,4.70
2018-08-20T19:33:23.916Z,4.27
2018-08-20T19:35:51.985Z,3.67
2018-08-20T19:38:19.621Z,4.27
2018-08-20T19:40:47.120Z,4.50
2018-08-20T19:43:14.644Z,3.67
2018-08-20T19:45:45.588Z,3.93
2018-08-20T19:48:13.896Z,3.23
2018-08-20T19:50:42.377Z,4.17
2018-08-20T19:53:15.174Z,3.80
2018-08-20T19:55:42.918Z,4.30
2018-08-20T19:58:13.909Z,3.80
2018-08-20T20:00:42.398Z,4.57
2018-08-20T20:03:09.899Z,4.83
2018-08-20T20:05:37.339Z,3.93
2018-08-20T20:08:04.709Z,3.80
2018-08-20T20:10:32.085Z,3.70
2018-08-20T20:12:59.542Z,4.73
2018-08-20T20:15:26.889Z,4.80
2018-08-20T20:17:55.425Z,3.83
2018-08-20T20:20:23.463Z,3.67
2018-08-20T20:22:50.832Z,3.97
2018-08-20T20:25:18.426Z,4.40
2018-08-20T20:27:45.914Z,4.03
2018-08-20T20:30:13.319Z,4.77
2018-08-20T20:32:40.658Z,3.87
2018-08-20T20:35:08.379Z,4.30
2018-08-20T20:37:35.756Z,3.53
2018-08-20T20:40:03.975Z,4.20
2018-08-20T20:42:31.428Z,3.90
2018-08-20T20:44:58.849Z,4.40
2018-08-20T20:47:28.069Z,5.07
2018-08-20T20:49:55.815Z,5.00
2018-08-20T20:52:23.395Z,4.40
2018-08-20T20:54:50.768Z,4.80
2018-08-20T20:57:19.368Z,4.03
2018-08-20T20:59:47.708Z,4.40
2018-08-20T21:02:15.057Z,4.80
2018-08-20T21:04:42.456Z,5.77
2018-08-20T21:07:09.825Z,4.33
2018-08-20T21:09:42.612Z,4.27
2018-08-20T21:12:10.013Z,6.73
2018-08-20T21:14:37.440Z,6.67
2018-08-20T21:17:04.911Z,5.37
2018-08-20T21:19:33.339Z,4.47
2018-08-20T21:22:00.730Z,5.57
2018-08-20T21:24:28.100Z,4.80
2018-08-20T21:26:55.512Z,5.20
2018-08-20T21:29:23.225Z,4.77
2018-08-20T21:31:51.420Z,4.50
2018-08-20T21:34:19.956Z,6.00
2018-08-20T21:36:47.345Z,4.27
2018-08-20T21:39:14.667Z,6.00
2018-08-20T21:41:42.079Z,4.40
2018-08-20T21:44:10.160Z,5.53
2018-08-20T21:46:37.672Z,4.50
2018-08-20T21:49:05.444Z,4.83
2018-08-20T21:51:38.761Z,7.33
2018-08-20T21:54:06.295Z,8.57
2018-08-20T21:56:39.213Z,4.53
2018-08-20T21:59:07.416Z,5.20
2018-08-20T22:01:34.783Z,5.20
2018-08-20T22:04:06.386Z,4.57
2018-08-20T22:06:33.708Z,3.90
2018-08-20T22:09:04.145Z,4.60
2018-08-20T22:11:31.477Z,4.70
2018-08-20T22:13:58.792Z,5.40
2018-08-20T22:16:26.150Z,5.23
2018-08-20T22:18:58.253Z,5.27
2018-08-20T22:21:25.675Z,6.40
2018-08-20T22:23:58.663Z,5.00
2018-08-20T22:26:26.041Z,5.60
2018-08-20T22:28:53.425Z,5.17
2018-08-20T22:31:21.257Z,4.03
2018-08-20T22:33:55.660Z,4.50
2018-08-20T22:36:23.107Z,5.37
2018-08-20T22:38:55.599Z,5.20
2018-08-20T22:41:24.226Z,4.47
2018-08-20T22:43:51.628Z,4.33
2018-08-20T22:46:20.289Z,6.17
2018-08-20T22:48:49.895Z,5.30
2018-08-20T22:51:18.104Z,5.10
2018-08-20T22:53:49.135Z,5.30
2018-08-20T22:56:19.096Z,5.20
2018-08-20T22:58:46.493Z,4.90
2018-08-20T23:01:13.886Z,4.33
2018-08-20T23:03:41.559Z,5.07
2018-08-20T23:06:09.168Z,5.10
2018-08-20T23:08:36.487Z,5.57
2018-08-20T23:11:03.848Z,4.50
2018-08-20T23:13:31.247Z,4.57
2018-08-20T23:15:58.571Z,5.13
2018-08-20T23:18:25.928Z,5.27
2018-08-20T23:20:53.239Z,4.80
2018-08-20T23:23:26.874Z,4.80
2018-08-20T23:25:58.574Z,6.50
2018-08-20T23:28:25.882Z,5.97
2018-08-20T23:30:57.653Z,5.50
2018-08-20T23:33:24.959Z,6.53
2018-08-20T23:35:52.260Z,5.40
2018-08-20T23:38:19.571Z,5.37
2018-08-20T23:40:46.912Z,5.17
2018-08-20T23:43:14.201Z,5.20
2018-08-20T23:45:41.526Z,5.70
2018-08-20T23:48:08.886Z,5.43
2018-08-20T23:50:36.178Z,4.77
2018-08-20T23:53:03.502Z,5.10
2018-08-20T23:55:30.804Z,5.70
2018-08-20T23:57:58.151Z,5.20
